Terminal Aerodrome Forecast
Issued by NWS

Home | Current Version | Previous Version | Text Only | Print | Product List | Glossary On
Versions: 1 2 3 4 5 6 7 8 9 10 11 12 13 14 15
000
FTUS45 KRIW 242300
TAFWRL
TAF
KWRL 242330Z 2500/2524 32007KT P6SM SCT070
     FM250200 VRB06KT P6SM SCT090 BKN150
     FM251500 16007KT P6SM BKN150
     FM251900 VRB04KT P6SM BKN200=

USA.gov is the U.S. government's official web portal to all federal, state and local government web resources and services.